Terminal Aerodrome Forecast
Issued by NWS

Home | Current Version | Previous Version | Graphics & Text | Print | Product List | Glossary On
Versions: 1 2 3 4 5 6 7 8 9 10 11 12 13 14 15 16 17 18 19 20 21 22 23 24 25
000
FTUS42 KMHX 311529 AAA
TAFPGV
TAF AMD
KPGV 311529Z 3115/0112 01009KT P6SM BKN025
     FM311700 01005KT P6SM SCT050
     FM010200 14003KT P6SM SCT040 BKN250
     FM010800 19001KT 6SM BR SCT040
      AMD LTD TO CLD VIS AND WIND=

USA.gov is the U.S. government's official web portal to all federal, state and local government web resources and services.